Time;durP1;ratioP1;P1;durP2;ratioP2;P2;SDS_P1;SDS_P2;PMS_P1;PMS_P2;Temp;Humidity;BMP_temperature;BMP_pressure;BME280_temperature;BME280_humidity;BME280_pressure;Samples;Min_cycle;Max_cycle;Signal;HPM_P1;HPM_P2
2023/08/05 00:01:11;;;;;;;1.85;1.67;;;;;;;19.19;81.77;95351.75;5006618;28;20202;-90
2023/08/05 00:03:37;;;;;;;1.83;1.50;;;;;;;19.28;81.19;95352.13;5005997;28;20207;-89
2023/08/05 00:06:11;;;;;;;3.70;1.60;;;;;;;19.30;80.69;95344.88;5008806;28;20205;-90
2023/08/05 00:08:43;;;;;;;2.92;1.85;;;;;;;19.24;81.47;95359.66;5008698;28;20232;-90
2023/08/05 00:11:10;;;;;;;2.00;1.60;;;;;;;19.26;81.39;95364.63;5009124;28;20198;-90
2023/08/05 00:13:43;;;;;;;1.98;1.83;;;;;;;19.20;81.64;95371.59;5021861;28;20635;-90
2023/08/05 00:16:23;;;;;;;1.75;1.55;;;;;;;19.18;81.64;95365.03;5008710;28;20191;-90
2023/08/05 00:18:49;;;;;;;2.25;1.75;;;;;;;19.12;82.39;95373.78;5007208;28;20225;-91
2023/08/05 00:21:18;;;;;;;1.50;1.40;;;;;;;19.05;82.88;95383.59;5008998;28;20209;-90
2023/08/05 00:23:44;;;;;;;1.73;1.63;;;;;;;19.02;83.14;95397.13;5009372;28;20627;-91
2023/08/05 00:26:16;;;;;;;2.00;1.80;;;;;;;19.05;83.16;95388.81;5009702;28;20194;-90
2023/08/05 00:28:42;;;;;;;2.10;1.75;;;;;;;19.08;82.83;95388.34;5012743;28;20565;-90
2023/08/05 00:31:09;;;;;;;2.08;1.80;;;;;;;19.06;83.12;95390.38;5011470;28;20702;-90
2023/08/05 00:33:36;;;;;;;2.03;1.77;;;;;;;19.04;83.56;95395.84;5008049;28;20277;-90
2023/08/05 00:36:02;;;;;;;1.80;1.70;;;;;;;19.08;83.37;95396.16;5012387;28;20665;-90
2023/08/05 00:38:30;;;;;;;2.05;1.77;;;;;;;19.02;83.99;95399.72;5012563;28;20230;-90
2023/08/05 00:40:56;;;;;;;1.70;1.60;;;;;;;19.00;84.81;95412.22;5012429;28;20210;-90
2023/08/05 00:43:25;;;;;;;2.13;1.83;;;;;;;19.01;84.19;95409.38;5011830;28;20206;-90
2023/08/05 00:45:51;;;;;;;1.90;1.70;;;;;;;19.01;84.85;95406.75;5012083;28;20601;-90
2023/08/05 00:48:18;;;;;;;2.13;1.80;;;;;;;19.06;84.49;95406.03;5011122;28;20217;-90
2023/08/05 00:50:45;;;;;;;1.70;1.60;;;;;;;19.04;84.64;95411.53;5004939;28;20218;-90
2023/08/05 00:53:16;;;;;;;1.95;1.77;;;;;;;18.93;85.72;95418.34;5000150;28;20286;-90
2023/08/05 00:55:50;;;;;;;2.25;1.90;;;;;;;18.99;85.57;95427.06;5011928;28;20230;-90
2023/08/05 00:58:20;;;;;;;1.92;1.63;;;;;;;18.97;85.75;95427.31;5012235;28;20225;-90
2023/08/05 01:00:46;;;;;;;1.60;1.50;;;;;;;18.93;86.94;95438.44;5012274;28;20206;-90
2023/08/05 01:03:13;;;;;;;3.65;1.73;;;;;;;18.96;86.75;95430.94;5011856;28;20210;-89
2023/08/05 01:05:44;;;;;;;2.10;1.90;;;;;;;19.04;86.24;95429.78;5010829;28;20206;-90
2023/08/05 01:08:16;;;;;;;1.63;1.52;;;;;;;19.09;86.00;95423.84;5011731;28;20223;-89
2023/08/05 01:10:44;;;;;;;2.55;1.85;;;;;;;19.12;85.93;95416.34;5011979;28;20203;-91
2023/08/05 01:13:22;;;;;;;2.95;1.75;;;;;;;19.15;85.73;95412.47;5023687;28;20202;-90
2023/08/05 01:15:56;;;;;;;2.50;2.20;;;;;;;19.08;86.45;95417.84;5019989;28;20195;-89
2023/08/05 01:18:26;;;;;;;3.40;1.98;;;;;;;19.11;86.56;95414.75;5011850;28;20572;-90
2023/08/05 01:20:55;;;;;;;4.38;2.08;;;;;;;19.07;86.90;95415.44;5011449;28;20191;-90
2023/08/05 01:23:30;;;;;;;2.45;2.03;;;;;;;18.99;87.73;95429.69;5010559;28;20198;-90
2023/08/05 01:26:00;;;;;;;2.78;1.98;;;;;;;18.98;87.82;95421.06;5011333;28;20199;-90
2023/08/05 01:28:27;;;;;;;2.72;1.85;;;;;;;18.97;88.26;95424.69;5011380;28;20222;-90
2023/08/05 01:30:56;;;;;;;2.10;1.90;;;;;;;18.94;88.96;95426.97;5005083;28;20192;-89
2023/08/05 01:33:28;;;;;;;3.95;2.28;;;;;;;18.90;89.70;95431.06;4992726;28;20580;-90
2023/08/05 01:36:03;;;;;;;4.88;2.08;;;;;;;18.84;91.01;95443.22;5005427;28;20206;-89
2023/08/05 01:38:32;;;;;;;2.65;2.10;;;;;;;18.81;91.57;95450.72;5009528;28;20241;-90
2023/08/05 01:41:00;;;;;;;2.20;2.00;;;;;;;18.76;92.47;95461.03;5011302;28;20207;-89
2023/08/05 01:43:26;;;;;;;2.67;2.10;;;;;;;18.69;93.72;95461.16;5011243;28;20202;-89
2023/08/05 01:45:53;;;;;;;3.13;2.10;;;;;;;18.69;92.98;95455.94;5011437;28;20191;-90
2023/08/05 01:48:19;;;;;;;3.78;2.03;;;;;;;18.71;93.46;95453.13;5010300;28;20792;-90
2023/08/05 01:50:48;;;;;;;2.00;1.90;;;;;;;18.69;92.86;95450.72;5011047;28;20206;-90
2023/08/05 01:53:26;;;;;;;2.53;2.13;;;;;;;18.74;92.41;95437.00;5011399;28;20678;-90
2023/08/05 01:55:57;;;;;;;2.60;2.40;;;;;;;18.61;93.84;95458.94;5010260;28;20211;-89
2023/08/05 01:58:33;;;;;;;2.60;2.38;;;;;;;18.57;93.31;95453.34;5011050;28;20237;-89
2023/08/05 02:01:06;;;;;;;2.40;2.30;;;;;;;18.57;93.10;95448.13;5010922;28;20667;-90
2023/08/05 02:03:32;;;;;;;2.33;2.13;;;;;;;18.65;92.29;95436.59;5011320;28;20553;-90
2023/08/05 02:05:59;;;;;;;2.40;2.20;;;;;;;18.62;92.54;95435.22;5010609;28;20681;-90
2023/08/05 02:08:25;;;;;;;2.80;2.20;;;;;;;18.55;92.19;95431.91;5010948;28;20633;-90
2023/08/05 02:10:52;;;;;;;2.28;2.15;;;;;;;18.52;92.41;95431.56;5010255;28;20206;-90
2023/08/05 02:13:18;;;;;;;2.17;1.90;;;;;;;18.49;92.39;95429.41;5023684;28;20202;-90
2023/08/05 02:15:55;;;;;;;3.15;2.15;;;;;;;18.50;92.68;95415.38;5021130;28;20708;-90
2023/08/05 02:18:22;;;;;;;2.17;1.95;;;;;;;18.45;92.76;95420.50;5010643;28;20618;-90
2023/08/05 02:20:50;;;;;;;1.70;1.60;;;;;;;18.39;92.66;95419.59;5010578;28;20203;-89
2023/08/05 02:23:16;;;;;;;1.88;1.70;;;;;;;18.44;92.11;95418.91;5010660;28;20207;-90
2023/08/05 02:25:43;;;;;;;3.50;1.80;;;;;;;18.43;91.71;95431.16;5009533;28;20199;-90
2023/08/05 02:28:09;;;;;;;5.65;1.75;;;;;;;18.35;91.84;95435.91;5009361;28;20227;-90
2023/08/05 02:30:36;;;;;;;2.20;1.30;;;;;;;18.33;91.92;95443.94;5010701;28;20213;-90
2023/08/05 02:33:05;;;;;;;1.48;1.30;;;;;;;18.28;91.90;95452.44;5010625;28;20207;-90
2023/08/05 02:35:32;;;;;;;1.20;1.20;;;;;;;18.36;90.77;95446.09;5009428;28;20199;-90
2023/08/05 02:37:58;;;;;;;1.40;1.30;;;;;;;18.42;90.29;95434.78;5010111;28;20818;-90
2023/08/05 02:40:25;;;;;;;1.30;1.20;;;;;;;18.42;89.88;95428.78;5011011;28;20210;-89
2023/08/05 02:42:54;;;;;;;1.25;1.15;;;;;;;18.39;90.29;95439.66;5009110;28;20210;-90
2023/08/05 02:45:24;;;;;;;1.38;1.13;;;;;;;18.45;89.13;95425.72;5002017;28;20206;-90
2023/08/05 02:47:58;;;;;;;2.00;1.10;;;;;;;18.45;89.10;95433.53;5010033;28;20215;-90
2023/08/05 02:50:26;;;;;;;1.55;1.20;;;;;;;18.48;88.18;95423.41;5009300;28;20676;-90
2023/08/05 02:52:52;;;;;;;0.95;0.95;;;;;;;18.48;87.89;95417.41;5010178;28;20210;-90
2023/08/05 02:55:18;;;;;;;1.02;1.02;;;;;;;18.47;87.91;95398.34;5009288;28;20212;-90
2023/08/05 02:57:45;;;;;;;0.90;0.90;;;;;;;18.51;87.22;95386.47;5009764;28;20231;-90
2023/08/05 03:00:14;;;;;;;1.23;1.10;;;;;;;18.51;87.16;95381.25;5008755;28;20295;-90
2023/08/05 03:02:41;;;;;;;0.80;0.80;;;;;;;18.48;86.99;95376.47;5009323;28;20198;-90
2023/08/05 03:05:08;;;;;;;1.42;1.33;;;;;;;18.37;87.84;95398.16;5001048;28;20223;-89
2023/08/05 03:07:36;;;;;;;1.00;1.00;;;;;;;18.36;87.91;95401.00;5007188;28;20213;-90
2023/08/05 03:10:02;;;;;;;1.08;1.08;;;;;;;18.44;87.41;95393.63;5009941;28;20199;-90
2023/08/05 03:12:29;;;;;;;1.70;1.13;;;;;;;18.35;87.89;95404.63;5015592;28;20198;-90
2023/08/05 03:14:59;;;;;;;2.33;1.10;;;;;;;18.33;88.41;95423.09;5018807;28;20210;-90
2023/08/05 03:17:26;;;;;;;1.20;1.10;;;;;;;18.35;87.91;95428.88;5003218;28;20207;-90
2023/08/05 03:20:02;;;;;;;2.30;1.75;;;;;;;18.30;88.17;95442.59;5009572;28;20699;-90
2023/08/05 03:22:28;;;;;;;1.85;1.70;;;;;;;18.28;89.07;95449.06;5006998;28;20615;-90
2023/08/05 03:25:00;;;;;;;1.80;1.55;;;;;;;18.26;88.61;95451.91;5003840;28;20249;-90
2023/08/05 03:27:26;;;;;;;2.58;2.05;;;;;;;18.29;88.97;95451.44;5009445;28;20195;-90
2023/08/05 03:37:39;;;;;;;2.08;1.88;;;;;;;18.28;89.02;95452.44;4924345;28;20243;-89
2023/08/05 03:47:06;;;;;;;2.50;1.65;;;;;;;18.19;90.93;95469.47;5004168;28;20202;-90
2023/08/05 03:50:15;;;;;;;1.67;1.58;;;;;;;18.11;91.76;95477.59;4998646;28;20230;-91
2023/08/05 03:52:42;;;;;;;2.38;1.90;;;;;;;18.03;92.71;95488.38;4990763;28;20282;-90
2023/08/05 03:55:12;;;;;;;3.17;1.73;;;;;;;18.00;92.95;95496.63;4999444;28;20226;-90
2023/08/05 03:57:47;;;;;;;2.30;2.08;;;;;;;18.04;93.31;95517.84;5009205;28;20223;-90
2023/08/05 04:00:21;;;;;;;2.42;1.88;;;;;;;17.99;94.15;95523.72;5009754;28;20204;-91
2023/08/05 04:02:51;;;;;;;2.50;1.83;;;;;;;18.03;94.96;95527.47;5010385;28;20261;-89
2023/08/05 04:05:21;;;;;;;2.08;1.60;;;;;;;17.90;96.59;95553.69;5005662;28;20646;-90
2023/08/05 04:07:59;;;;;;;2.00;1.90;;;;;;;17.97;95.80;95551.78;5009220;28;20357;-90
2023/08/05 04:10:40;;;;;;;2.10;1.80;;;;;;;18.01;95.83;95544.31;5009579;28;20213;-91
2023/08/05 04:13:34;;;;;;;2.00;1.90;;;;;;;18.03;95.68;95552.72;5020970;28;20206;-91
2023/08/05 04:16:23;;;;;;;1.90;1.80;;;;;;;18.11;95.21;95557.59;5026422;28;20208;-89
2023/08/05 04:18:52;;;;;;;1.90;1.80;;;;;;;18.06;96.11;95567.91;5003354;28;20223;-90
2023/08/05 04:21:51;;;;;;;2.20;1.70;;;;;;;18.01;96.58;95555.53;5007861;28;20297;-90
2023/08/05 04:27:16;;;;;;;2.67;1.90;;;;;;;17.93;98.13;95571.47;4972529;28;20262;-90
2023/08/05 04:29:45;;;;;;;2.42;2.13;;;;;;;17.97;97.82;95567.44;4991803;28;20700;-89
2023/08/05 04:32:18;;;;;;;2.55;2.17;;;;;;;17.98;97.96;95566.41;5008843;28;20206;-90
2023/08/05 04:34:52;;;;;;;1.98;1.88;;;;;;;18.10;96.66;95550.78;5009145;28;20301;-90
2023/08/05 04:37:24;;;;;;;2.20;2.10;;;;;;;18.04;96.93;95549.09;4999300;28;20238;-90
2023/08/05 04:40:00;;;;;;;2.67;2.08;;;;;;;18.04;97.70;95559.53;5007934;28;20310;-90
2023/08/05 04:42:29;;;;;;;2.05;1.92;;;;;;;18.04;97.92;95569.94;5008685;28;20668;-90
2023/08/05 04:45:04;;;;;;;2.30;2.10;;;;;;;18.08;96.99;95561.47;5008535;28;20261;-90
2023/08/05 04:47:51;;;;;;;2.03;1.92;;;;;;;18.17;95.27;95544.47;5008236;28;20205;-90
2023/08/05 04:50:19;;;;;;;2.30;2.10;;;;;;;18.17;95.95;95541.88;5008429;28;20202;-90
2023/08/05 04:55:42;;;;;;;2.13;2.03;;;;;;;18.09;97.16;95550.00;5007710;28;20195;-90
2023/08/05 04:58:26;;;;;;;2.47;2.28;;;;;;;18.17;96.83;95547.06;5008296;28;20277;-89
2023/08/05 05:01:20;;;;;;;2.70;2.50;;;;;;;18.10;97.80;95556.00;5007472;28;20611;-90
2023/08/05 05:03:55;;;;;;;2.65;2.42;;;;;;;18.02;98.51;95551.94;5008603;28;20624;-90
2023/08/05 05:06:38;;;;;;;2.80;2.60;;;;;;;18.05;97.70;95553.28;4995288;28;20195;-89
2023/08/05 05:09:24;;;;;;;;;;;;;;;;;;;;;
2023/08/05 05:12:01;;;;;;;3.20;3.00;;;;;;;18.04;98.08;95562.91;4997625;28;20207;-87
2023/08/05 05:20:49;;;;;;;3.50;3.20;;;;;;;18.04;98.27;95562.13;5002914;28;20209;-88
2023/08/05 05:26:19;;;;;;;3.50;3.20;;;;;;;18.05;99.25;95563.72;5003619;28;20631;-87
2023/08/05 05:28:48;;;;;;;3.58;3.28;;;;;;;17.98;100.00;95589.84;5011913;28;20226;-88
2023/08/05 05:31:31;;;;;;;3.20;2.97;;;;;;;18.03;100.00;95592.59;5011762;28;20257;-87
2023/08/05 05:34:30;;;;;;;;;;;;;;;;;;;;;
2023/08/05 05:39:48;;;;;;;3.88;3.35;;;;;;;18.04;99.87;95565.53;5001069;28;20266;-87
2023/08/05 05:42:33;;;;;;;3.30;3.00;;;;;;;18.10;98.79;95558.59;5011493;28;20624;-87
2023/08/05 05:45:03;;;;;;;3.28;3.08;;;;;;;18.20;98.15;95567.47;5011234;28;20199;-88
2023/08/05 05:47:48;;;;;;;;;;;;;;;;;;;;;
2023/08/05 05:50:41;;;;;;;3.10;2.90;;;;;;;18.22;96.28;95557.63;5009543;28;20209;-88
2023/08/05 05:53:23;;;;;;;3.55;3.25;;;;;;;18.19;96.70;95565.88;5011380;28;20635;-87
2023/08/05 05:56:01;;;;;;;3.63;3.33;;;;;;;18.31;95.65;95550.25;5009875;28;20234;-87
2023/08/05 06:01:11;;;;;;;3.40;3.10;;;;;;;18.19;96.38;95572.91;4990186;28;20206;-87
2023/08/05 06:07:03;;;;;;;3.50;3.17;;;;;;;18.27;95.93;95560.38;4992028;28;20228;-87
2023/08/05 06:09:56;;;;;;;3.40;3.10;;;;;;;18.24;96.15;95554.81;5007472;28;20234;-88
2023/08/05 06:15:36;;;;;;;;;;;;;;;;;;;;;
2023/08/05 06:18:13;;;;;;;3.92;3.65;;;;;;;18.28;95.80;95548.09;4993941;28;20218;-87
2023/08/05 06:20:54;;;;;;;4.53;3.72;;;;;;;18.21;97.15;95566.47;5001756;28;20286;-87
2023/08/05 06:23:21;;;;;;;4.03;3.72;;;;;;;18.22;95.34;95556.84;5022384;28;20220;-88
2023/08/05 06:28:33;;;;;;;4.40;4.00;;;;;;;18.18;96.05;95560.91;5006406;28;20230;-89
2023/08/05 06:34:34;;;;;;;3.88;3.50;;;;;;;18.20;96.39;95571.91;4869844;29;20347;-89
2023/08/05 06:37:02;;;;;;;4.88;3.50;;;;;;;18.26;95.57;95579.63;4933034;28;20209;-88
2023/08/05 06:39:28;;;;;;;3.70;3.40;;;;;;;18.25;95.44;95575.44;5012186;28;20225;-89
2023/08/05 06:41:59;;;;;;;4.07;3.72;;;;;;;18.23;95.70;95589.69;5009375;28;20206;-88
2023/08/05 06:44:26;;;;;;;4.00;3.70;;;;;;;18.29;95.19;95580.97;5010827;28;20674;-87
2023/08/05 06:46:54;;;;;;;3.90;3.60;;;;;;;18.27;94.71;95564.78;5008246;28;20718;-87
2023/08/05 06:49:21;;;;;;;4.82;3.80;;;;;;;18.25;94.96;95566.81;5008462;28;20214;-87
2023/08/05 06:51:58;;;;;;;3.97;3.67;;;;;;;18.34;93.83;95551.63;5005057;28;20205;-88
2023/08/05 06:54:43;;;;;;;3.88;3.58;;;;;;;18.40;93.44;95541.09;4997227;28;20194;-88
2023/08/05 06:57:18;;;;;;;4.93;3.60;;;;;;;18.37;93.67;95535.53;5008480;28;20199;-87
2023/08/05 06:59:54;;;;;;;5.63;3.40;;;;;;;18.42;93.04;95535.66;5008586;28;20226;-86
2023/08/05 07:02:20;;;;;;;6.70;3.80;;;;;;;18.32;93.26;95540.63;5008612;28;20580;-87
2023/08/05 07:05:27;;;;;;;3.70;3.28;;;;;;;18.24;93.06;95539.16;5002377;28;20286;-88
2023/08/05 07:07:59;;;;;;;3.92;3.63;;;;;;;18.23;92.18;95520.13;4998967;28;20306;-88
2023/08/05 07:10:27;;;;;;;4.15;3.75;;;;;;;18.30;91.96;95525.22;5006966;28;20206;-88
2023/08/05 07:13:01;;;;;;;3.80;3.50;;;;;;;18.39;91.92;95538.72;5008558;28;20203;-87
2023/08/05 07:15:45;;;;;;;4.22;3.35;;;;;;;18.28;93.58;95553.31;5027477;28;20212;-88
2023/08/05 07:18:21;;;;;;;3.40;3.20;;;;;;;18.41;92.44;95544.50;5026206;28;20229;-86
2023/08/05 07:21:12;;;;;;;3.67;3.38;;;;;;;18.40;91.60;95525.47;5006914;28;20198;-87
2023/08/05 07:23:41;;;;;;;4.65;3.30;;;;;;;18.47;91.02;95520.91;4989336;28;20206;-87
2023/08/05 07:26:34;;;;;;;3.30;2.95;;;;;;;18.44;92.19;95531.00;5008809;28;20203;-87
2023/08/05 07:29:16;;;;;;;3.83;3.35;;;;;;;18.38;91.81;95521.47;5005508;28;20251;-87
2023/08/05 07:31:55;;;;;;;3.85;3.47;;;;;;;18.40;90.30;95494.16;5002010;28;20634;-87
2023/08/05 07:34:30;;;;;;;3.67;3.38;;;;;;;18.44;90.31;95487.50;4999113;28;20198;-88
2023/08/05 07:37:05;;;;;;;3.63;3.35;;;;;;;18.48;90.46;95487.81;5009358;28;20202;-87
2023/08/05 07:39:47;;;;;;;3.95;2.90;;;;;;;18.50;90.60;95494.38;5008127;28;20225;-87
2023/08/05 07:42:27;;;;;;;6.40;3.72;;;;;;;18.53;90.84;95503.56;5010344;28;20199;-87
2023/08/05 07:44:57;;;;;;;3.22;2.92;;;;;;;18.58;90.70;95501.88;5010417;28;20281;-87
2023/08/05 07:47:28;;;;;;;4.68;3.70;;;;;;;18.49;91.51;95520.69;5009552;28;20277;-87
2023/08/05 07:50:06;;;;;;;3.22;3.00;;;;;;;18.51;90.63;95519.44;5010271;28;20607;-86
2023/08/05 07:52:55;;;;;;;3.92;3.47;;;;;;;18.58;89.35;95495.84;5009000;28;20298;-87
2023/08/05 07:55:42;;;;;;;3.30;3.00;;;;;;;18.61;89.42;95491.03;5006503;28;20570;-87
2023/08/05 07:58:12;;;;;;;3.47;3.17;;;;;;;18.58;90.95;95514.91;5002713;28;20218;-86
2023/08/05 08:00:48;;;;;;;3.08;2.78;;;;;;;18.55;91.24;95528.41;5012297;28;20249;-87
2023/08/05 08:03:29;;;;;;;4.00;3.60;;;;;;;18.57;90.94;95518.53;5002385;28;20202;-87
2023/08/05 08:06:07;;;;;;;5.28;3.53;;;;;;;18.56;90.61;95513.53;5012410;28;20202;-88
2023/08/05 08:08:54;;;;;;;3.70;3.40;;;;;;;18.47;92.42;95535.78;5013774;28;20588;-88
2023/08/05 08:11:28;;;;;;;3.63;3.30;;;;;;;18.52;92.16;95543.69;5012451;28;20205;-86
2023/08/05 08:14:07;;;;;;;5.00;3.05;;;;;;;18.51;92.76;95547.31;5010408;28;20249;-88
2023/08/05 08:16:58;;;;;;;4.45;3.15;;;;;;;18.53;93.79;95569.56;5011027;28;20258;-86
2023/08/05 08:19:30;;;;;;;3.80;3.40;;;;;;;18.61;92.08;95534.56;5010338;28;20577;-86
2023/08/05 08:22:02;;;;;;;6.20;3.75;;;;;;;18.61;93.08;95555.41;5005161;28;20262;-87
2023/08/05 08:24:29;;;;;;;3.92;3.50;;;;;;;18.71;91.88;95534.75;4990940;28;20446;-87
2023/08/05 08:26:59;;;;;;;3.70;3.15;;;;;;;18.79;91.31;95529.22;5000687;28;20199;-88
2023/08/05 08:29:31;;;;;;;3.30;3.00;;;;;;;18.86;91.64;95524.66;5011215;28;20724;-87
2023/08/05 08:31:59;;;;;;;4.10;3.42;;;;;;;18.88;90.70;95501.72;5010691;28;20643;-87
2023/08/05 08:37:24;;;;;;;3.30;3.10;;;;;;;19.07;90.90;95489.31;5009028;28;20202;-87
2023/08/05 08:40:05;;;;;;;4.22;3.70;;;;;;;19.17;89.13;95470.47;5009906;28;20226;-88
2023/08/05 08:42:39;;;;;;;3.42;3.13;;;;;;;19.28;87.95;95444.31;5009541;28;20277;-86
2023/08/05 08:45:09;;;;;;;3.50;2.97;;;;;;;19.45;87.32;95446.16;5007979;28;20690;-86
2023/08/05 08:47:43;;;;;;;3.22;3.00;;;;;;;19.54;86.57;95431.72;5010127;28;20214;-88
2023/08/05 08:50:11;;;;;;;3.20;2.97;;;;;;;19.64;86.38;95435.28;5014435;28;20199;-86
2023/08/05 08:52:49;;;;;;;3.17;2.88;;;;;;;19.55;85.55;95418.44;5012199;28;20203;-89
2023/08/05 08:55:25;;;;;;;3.08;2.80;;;;;;;19.55;85.44;95415.03;5004226;28;20230;-90
2023/08/05 08:57:52;;;;;;;3.05;2.63;;;;;;;19.63;86.67;95433.69;5013670;28;20202;-92
2023/08/05 09:00:20;;;;;;;6.10;2.95;;;;;;;19.83;84.33;95391.44;5009345;28;20230;-88
2023/08/05 09:03:30;;;;;;;3.47;3.15;;;;;;;19.91;81.99;95349.22;5015856;28;20786;-91
2023/08/05 09:06:00;;;;;;;5.85;2.97;;;;;;;19.98;81.84;95341.22;4964850;28;20840;-88
2023/08/05 09:08:50;;;;;;;3.20;2.90;;;;;;;20.06;80.61;95316.47;5011484;28;20223;-89
2023/08/05 09:11:19;;;;;;;4.18;3.10;;;;;;;20.15;80.24;95302.75;4997531;28;20294;-88
2023/08/05 09:13:57;;;;;;;4.63;3.10;;;;;;;20.16;78.62;95275.59;5029276;28;20225;-87
2023/08/05 09:16:29;;;;;;;4.03;3.17;;;;;;;20.07;80.95;95310.22;5007949;28;20272;-89
2023/08/05 09:19:05;;;;;;;4.43;3.20;;;;;;;20.07;81.73;95320.69;5004788;28;20219;-89
2023/08/05 09:21:37;;;;;;;3.05;2.78;;;;;;;20.08;81.92;95324.88;5013477;28;20260;-88
2023/08/05 09:24:27;;;;;;;4.43;3.17;;;;;;;19.95;81.11;95310.34;5013418;28;20206;-88
2023/08/05 09:27:11;;;;;;;3.45;2.75;;;;;;;19.95;80.77;95305.91;5012853;28;20199;-87
2023/08/05 09:29:51;;;;;;;3.10;2.90;;;;;;;19.93;80.38;95305.34;5021915;28;20218;-89
2023/08/05 09:32:21;;;;;;;3.40;3.10;;;;;;;19.87;80.06;95289.84;5014005;28;20202;-90
2023/08/05 09:37:38;;;;;;;2.92;2.67;;;;;;;19.79;81.13;95305.94;5013405;28;20199;-89
2023/08/05 09:40:15;;;;;;;3.83;3.05;;;;;;;19.78;80.41;95292.09;5013616;28;20215;-89
2023/08/05 09:45:47;;;;;;;3.70;3.10;;;;;;;19.81;80.57;95289.00;4942849;29;20244;-90
2023/08/05 09:48:15;;;;;;;3.20;2.90;;;;;;;19.90;80.67;95287.53;5007261;28;20222;-89
2023/08/05 09:51:04;;;;;;;3.03;2.80;;;;;;;19.94;81.22;95298.31;5013435;28;20823;-91
2023/08/05 09:54:04;;;;;;;3.20;3.00;;;;;;;20.01;80.79;95302.31;5012806;28;20207;-90
2023/08/05 09:56:49;;;;;;;5.30;3.05;;;;;;;19.97;82.81;95342.25;5011064;28;20214;-91
2023/08/05 09:59:29;;;;;;;3.33;3.03;;;;;;;20.05;82.14;95328.75;5010473;28;20235;-90
2023/08/05 10:02:33;;;;;;;3.47;3.17;;;;;;;20.07;83.16;95336.34;5011861;28;20206;-89
2023/08/05 10:05:19;;;;;;;3.28;2.90;;;;;;;20.21;81.35;95311.44;5012752;28;20198;-89
2023/08/05 10:08:32;;;;;;;3.50;3.20;;;;;;;20.24;81.89;95322.19;5005571;28;20199;-89
2023/08/05 10:11:04;;;;;;;4.45;3.00;;;;;;;20.27;80.75;95305.25;4947014;28;20201;-89
2023/08/05 10:13:59;;;;;;;3.40;3.13;;;;;;;20.23;81.21;95314.59;5019180;28;20610;-88
2023/08/05 10:16:41;;;;;;;;;;;;;;;;;;;;;
2023/08/05 10:20:06;;;;;;;3.60;3.30;;;;;;;20.16;79.88;95285.25;5006776;28;20241;-90
2023/08/05 10:23:16;;;;;;;3.78;3.47;;;;;;;20.12;80.49;95292.00;5000242;28;20203;-89
2023/08/05 10:26:11;;;;;;;4.90;3.00;;;;;;;20.18;80.37;95286.59;4991455;28;20207;-90
2023/08/05 10:28:56;;;;;;;4.15;3.40;;;;;;;20.14;79.95;95280.25;5010296;28;20229;-89
2023/08/05 10:31:57;;;;;;;3.60;3.40;;;;;;;20.17;79.96;95273.75;5010115;28;20520;-89
2023/08/05 10:34:48;;;;;;;3.70;3.33;;;;;;;20.14;79.77;95253.34;5004651;28;20260;-89
2023/08/05 10:38:16;;;;;;;3.85;3.53;;;;;;;20.16;80.31;95272.19;5004196;28;20197;-90
2023/08/05 10:41:30;;;;;;;;;;;;;;;;;;;;;
2023/08/05 10:43:57;;;;;;;3.70;3.40;;;;;;;20.35;80.07;95255.94;5010316;28;20722;-89
2023/08/05 10:46:45;;;;;;;4.13;3.80;;;;;;;20.35;79.93;95252.53;5010227;28;20309;-89
2023/08/05 10:49:38;;;;;;;3.85;3.55;;;;;;;20.44;78.04;95216.28;5004932;28;20308;-89
2023/08/05 10:52:22;;;;;;;3.85;3.50;;;;;;;20.47;77.66;95200.88;5005982;28;20203;-88
2023/08/05 10:55:09;;;;;;;6.40;5.95;;;;;;;20.50;77.30;95195.16;5003500;28;20209;-89
2023/08/05 10:57:56;;;;;;;4.53;3.42;;;;;;;20.38;76.38;95159.75;5009772;28;20198;-89
2023/08/05 11:00:58;;;;;;;3.55;3.25;;;;;;;20.38;77.94;95194.53;5010194;28;20219;-88
2023/08/05 11:03:33;;;;;;;5.00;4.10;;;;;;;20.23;79.96;95221.25;5009870;28;20233;-88
2023/08/05 11:06:20;;;;;;;4.32;3.97;;;;;;;20.29;80.08;95224.72;5009100;28;20301;-89
2023/08/05 11:08:50;;;;;;;3.83;3.53;;;;;;;20.32;79.58;95213.78;5010485;28;20881;-89
2023/08/05 11:11:22;;;;;;;3.97;3.60;;;;;;;20.40;79.50;95207.38;5009195;28;20197;-88
2023/08/05 11:14:10;;;;;;;4.18;3.88;;;;;;;20.45;80.01;95216.03;5022588;28;20221;-89
2023/08/05 11:16:54;;;;;;;4.10;3.70;;;;;;;20.60;79.72;95195.25;5001920;28;20198;-89
2023/08/05 11:19:57;;;;;;;5.28;3.83;;;;;;;20.64;77.76;95158.91;5009508;28;20222;-89
2023/08/05 11:22:28;;;;;;;4.68;4.28;;;;;;;20.64;77.41;95151.06;4999373;28;20206;-89
2023/08/05 11:25:01;;;;;;;4.07;3.78;;;;;;;20.61;77.02;95138.47;5009794;28;20217;-88
2023/08/05 11:28:01;;;;;;;4.30;3.78;;;;;;;20.50;77.42;95145.47;5009793;28;20595;-88
2023/08/05 11:30:39;;;;;;;5.13;4.63;;;;;;;20.33;78.55;95165.69;4960351;28;20200;-88
2023/08/05 11:33:13;;;;;;;4.50;4.10;;;;;;;20.28;79.98;95199.63;4991013;28;20295;-88
2023/08/05 11:35:56;;;;;;;4.78;4.40;;;;;;;20.24;81.63;95229.91;4990402;28;20755;-88
2023/08/05 11:38:33;;;;;;;5.18;4.78;;;;;;;20.15;84.95;95289.69;4990248;28;20589;-88
2023/08/05 11:41:03;;;;;;;5.47;5.03;;;;;;;20.07;85.85;95307.59;5006515;28;20265;-88
2023/08/05 11:43:35;;;;;;;5.88;5.47;;;;;;;19.90;84.98;95294.59;5009577;28;20195;-87
2023/08/05 11:49:12;;;;;;;5.53;5.13;;;;;;;19.63;88.30;95329.22;4993798;28;20234;-88
2023/08/05 11:51:51;;;;;;;5.63;5.13;;;;;;;19.80;86.99;95315.38;5009206;28;20241;-88
2023/08/05 11:54:33;;;;;;;5.85;5.40;;;;;;;19.93;86.82;95315.00;5006257;28;20222;-88
2023/08/05 11:57:00;;;;;;;5.32;4.85;;;;;;;20.06;85.58;95287.72;5009415;28;20206;-88
2023/08/05 11:59:46;;;;;;;5.97;4.90;;;;;;;20.16;81.23;95205.00;5009318;28;20223;-89
2023/08/05 12:02:17;;;;;;;4.93;4.63;;;;;;;20.25;80.44;95179.19;5009085;28;20194;-88
2023/08/05 12:04:48;;;;;;;5.25;4.75;;;;;;;20.27;82.27;95208.50;5009404;28;20198;-88
2023/08/05 12:07:18;;;;;;;5.65;4.85;;;;;;;20.37;82.25;95206.03;5009350;28;20634;-88
2023/08/05 12:10:03;;;;;;;5.63;5.22;;;;;;;20.41;83.31;95227.22;5007891;28;20233;-88
2023/08/05 12:15:24;;;;;;;5.18;4.82;;;;;;;20.50;81.50;95181.28;5027123;28;20209;-89
2023/08/05 12:17:52;;;;;;;5.35;4.95;;;;;;;20.52;80.70;95164.31;5029245;28;20208;-87
2023/08/05 12:20:22;;;;;;;5.28;4.97;;;;;;;20.56;81.82;95183.72;5009468;28;20223;-87
2023/08/05 12:22:49;;;;;;;5.88;5.38;;;;;;;20.54;83.50;95213.78;5014136;28;20669;-88
2023/08/05 12:25:19;;;;;;;6.07;5.60;;;;;;;20.45;83.20;95205.56;5014288;28;20194;-89
2023/08/05 12:27:46;;;;;;;6.80;6.20;;;;;;;20.32;85.65;95239.94;5015757;28;20619;-89
2023/08/05 12:30:18;;;;;;;7.45;6.85;;;;;;;20.21;86.79;95256.53;5015622;28;20205;-89
2023/08/05 12:32:46;;;;;;;7.03;6.50;;;;;;;20.14;87.68;95284.69;5011266;28;20206;-88
2023/08/05 12:35:13;;;;;;;7.38;6.68;;;;;;;20.14;87.55;95289.94;5015466;28;20206;-89
2023/08/05 12:37:39;;;;;;;6.22;5.63;;;;;;;20.11;86.21;95262.44;5015212;28;20738;-89
2023/08/05 12:40:08;;;;;;;6.35;5.85;;;;;;;20.11;85.85;95262.44;5015009;28;20272;-88
2023/08/05 12:42:35;;;;;;;7.80;6.45;;;;;;;20.11;85.63;95269.50;5014145;28;20238;-88
2023/08/05 12:45:06;;;;;;;6.75;6.25;;;;;;;20.10;85.94;95278.38;5008838;28;20676;-88
2023/08/05 12:47:33;;;;;;;12.85;11.82;;;;;;;20.08;87.37;95293.50;5013937;28;20241;-88
2023/08/05 12:50:01;;;;;;;7.38;6.13;;;;;;;20.10;87.73;95297.47;5015785;28;20619;-88
2023/08/05 12:52:31;;;;;;;5.97;5.47;;;;;;;20.11;88.39;95313.94;5015393;28;20668;-88
2023/08/05 12:54:58;;;;;;;6.15;5.65;;;;;;;20.12;89.08;95323.34;5015129;28;20221;-88
2023/08/05 12:57:49;;;;;;;5.70;5.20;;;;;;;20.06;90.90;95360.91;5014683;28;20290;-88
2023/08/05 13:00:17;;;;;;;6.10;5.60;;;;;;;19.82;93.29;95397.69;5016523;28;20284;-89
2023/08/05 13:02:49;;;;;;;5.68;5.05;;;;;;;19.51;92.89;95385.97;5015114;28;20203;-88
2023/08/05 13:05:27;;;;;;;5.35;4.95;;;;;;;19.33;93.33;95388.78;5005610;28;20270;-88
2023/08/05 13:08:14;;;;;;;5.60;5.20;;;;;;;19.25;94.72;95404.81;5013046;28;20202;-88
2023/08/05 13:13:37;;;;;;;5.53;5.13;;;;;;;19.14;95.42;95424.75;5009692;28;20286;-87
2023/08/05 13:16:14;;;;;;;5.60;5.05;;;;;;;19.08;96.19;95433.50;5015229;28;20206;-87
2023/08/05 13:18:49;;;;;;;6.63;5.60;;;;;;;19.09;99.56;95469.00;5014664;28;20230;-87
2023/08/05 13:21:20;;;;;;;5.80;5.30;;;;;;;19.03;98.17;95456.13;5014538;28;20700;-88
2023/08/05 13:23:55;;;;;;;5.70;5.20;;;;;;;18.97;100.00;95479.50;5014904;28;20206;-88
2023/08/05 13:26:24;;;;;;;6.07;5.57;;;;;;;18.96;100.00;95497.97;5014760;28;20289;-88